Joan's Ark — WDF6566 — position and weather

sailwx.info

Track history (hours):
 
Tides and Currents Weather Stations Pressure Air Temp Water Temp Dewpoint Dewpoint Depression Visibility Wind Speed Wind Dir Waves Ship Positions

Joan's Ark

More information available from US FCC via Universal Licensing System and Coast Guard Vessel Documentation Center.

Last reported at 2014-Jul-13 18:29 UTC. Time now 2014-Jul-31 05:25 UTC.
Position N 41°27' W 070°36'.
Warning: this ship's position is 17 days out of date.

Length 35 m; draft 1.8 m.

Type: Passenger vessel. MMSI: 366913000.

Date/timePositionNaut miles runAvg speedWind from/ knotsBaromVisibWave heightAir tempDewpointWater temp
2014-Jul-13 18:29N 41°27' W 070°36'5 5.2
2014-Jul-13 17:33N 41°28' W 070°42'1414.0
2014-Jul-13 16:34N 41°23' W 070°59'16 7.8
2014-Jul-13 14:31N 41°29' W 071°19'0 0.0
2014-Jul-13 13:25N 41°29' W 071°19'0 0.0
2014-Jul-13 12:31N 41°29' W 071°19'0 0.0
2014-Jul-13 11:33N 41°29' W 071°19'0 0.0
2014-Jul-13 10:20N 41°29' W 071°19'0 0.0
2014-Jul-13 06:17N 41°29' W 071°19'0 0.0
2014-Jul-13 05:14N 41°29' W 071°19'0 0.0
2014-Jul-13 00:16N 41°29' W 071°19'0 0.0
2014-Jul-12 23:33N 41°29' W 071°19'0 0.0
2014-Jul-12 22:04N 41°29' W 071°19'0 0.0
2014-Jul-12 06:19N 41°29' W 071°19'0 0.0
2014-Jul-12 05:30N 41°29' W 071°19'0 0.0
2014-Jul-12 04:34N 41°29' W 071°19'0 0.0
2014-Jul-12 03:33N 41°29' W 071°19'0 0.0
2014-Jul-12 02:32N 41°29' W 071°19'0 0.0
2014-Jul-12 01:30N 41°29' W 071°19'0 0.0
2014-Jul-12 00:22N 41°29' W 071°19'0 0.0
2014-Jul-11 20:10N 41°29' W 071°19'13 2.6
2014-Jul-11 15:11N 41°20' W 071°31'913.7
2014-Jul-11 14:33N 41°18' W 071°42'1312.9
2014-Jul-11 13:33N 41°15' W 071°59'1211.8
2014-Jul-11 12:33N 41°14' W 072°15'5 5.4
2014-Jul-11 11:33N 41°17' W 072°21'0 0.0
2014-Jul-11 10:33N 41°17' W 072°21'0 0.0
2014-Jul-11 09:33N 41°17' W 072°21'0 0.0
2014-Jul-11 08:33N 41°17' W 072°21'0 0.0
2014-Jul-11 07:33N 41°17' W 072°21'0 0.0
2014-Jul-11 06:33N 41°17' W 072°21'0 0.0
2014-Jul-11 05:33N 41°17' W 072°21'0 0.0
2014-Jul-11 04:33N 41°17' W 072°21'0 0.0
2014-Jul-11 03:33N 41°17' W 072°21'0 0.0
2014-Jul-11 02:33N 41°17' W 072°21'0 0.0
2014-Jul-11 01:33N 41°17' W 072°21'0 0.0
2014-Jul-11 00:33N 41°17' W 072°21'0 0.0
2014-Jul-10 23:33N 41°17' W 072°21'0 0.0
2014-Jul-10 22:33N 41°17' W 072°21'0 0.0
2014-Jul-10 21:33N 41°17' W 072°21'0 0.0
2014-Jul-10 20:33N 41°17' W 072°21'0 0.2
2014-Jul-10 19:33N 41°17' W 072°21'123 4.4
2014-Jul-09 15:33N 39°42' W 074°03'  
Track history (hours):
 
Tides and Currents Weather Stations Pressure Air Temp Water Temp Dewpoint Dewpoint Depression Visibility Wind Speed Wind Dir Waves Ship Positions

Joan's Ark

More information available from US FCC via Universal Licensing System and Coast Guard Vessel Documentation Center.

Last reported at 2014-Jul-13 18:29 UTC. Time now 2014-Jul-31 05:25 UTC.
Position N 41°27' W 070°36'.
Warning: this ship's position is 17 days out of date.

Length 35 m; draft 1.8 m.

Type: Passenger vessel. MMSI: 366913000.

Date/timePositionNaut miles runAvg speedWind from/ knotsBaromVisibWave heightAir tempDewpointWater temp
2014-Jul-13 18:29N 41°27' W 070°36'5 5.2
2014-Jul-13 17:33N 41°28' W 070°42'1414.0
2014-Jul-13 16:34N 41°23' W 070°59'16 7.8
2014-Jul-13 14:31N 41°29' W 071°19'0 0.0
2014-Jul-13 13:25N 41°29' W 071°19'0 0.0
2014-Jul-13 12:31N 41°29' W 071°19'0 0.0
2014-Jul-13 11:33N 41°29' W 071°19'0 0.0
2014-Jul-13 10:20N 41°29' W 071°19'0 0.0
2014-Jul-13 06:17N 41°29' W 071°19'0 0.0
2014-Jul-13 05:14N 41°29' W 071°19'0 0.0
2014-Jul-13 00:16N 41°29' W 071°19'0 0.0
2014-Jul-12 23:33N 41°29' W 071°19'0 0.0
2014-Jul-12 22:04N 41°29' W 071°19'0 0.0
2014-Jul-12 06:19N 41°29' W 071°19'0 0.0
2014-Jul-12 05:30N 41°29' W 071°19'0 0.0
2014-Jul-12 04:34N 41°29' W 071°19'0 0.0
2014-Jul-12 03:33N 41°29' W 071°19'0 0.0
2014-Jul-12 02:32N 41°29' W 071°19'0 0.0
2014-Jul-12 01:30N 41°29' W 071°19'0 0.0
2014-Jul-12 00:22N 41°29' W 071°19'0 0.0
2014-Jul-11 20:10N 41°29' W 071°19'13 2.6
2014-Jul-11 15:11N 41°20' W 071°31'913.7
2014-Jul-11 14:33N 41°18' W 071°42'1312.9
2014-Jul-11 13:33N 41°15' W 071°59'1211.8
2014-Jul-11 12:33N 41°14' W 072°15'5 5.4
2014-Jul-11 11:33N 41°17' W 072°21'0 0.0
2014-Jul-11 10:33N 41°17' W 072°21'0 0.0
2014-Jul-11 09:33N 41°17' W 072°21'0 0.0
2014-Jul-11 08:33N 41°17' W 072°21'0 0.0
2014-Jul-11 07:33N 41°17' W 072°21'0 0.0
2014-Jul-11 06:33N 41°17' W 072°21'0 0.0
2014-Jul-11 05:33N 41°17' W 072°21'0 0.0
2014-Jul-11 04:33N 41°17' W 072°21'0 0.0
2014-Jul-11 03:33N 41°17' W 072°21'0 0.0
2014-Jul-11 02:33N 41°17' W 072°21'0 0.0
2014-Jul-11 01:33N 41°17' W 072°21'0 0.0
2014-Jul-11 00:33N 41°17' W 072°21'0 0.0
2014-Jul-10 23:33N 41°17' W 072°21'0 0.0
2014-Jul-10 22:33N 41°17' W 072°21'0 0.0
2014-Jul-10 21:33N 41°17' W 072°21'0 0.0
2014-Jul-10 20:33N 41°17' W 072°21'0 0.2
2014-Jul-10 19:33N 41°17' W 072°21'123 4.4
2014-Jul-09 15:33N 39°42' W 074°03'  

Dump ship's entire track history